Česky Dansk Deutsch English Español Suomi Français Magyar Italiano Nederlands norsk Polski Português svenska Türkçe

 

Weather

Caravelas (Brazil)

22:00, 27 October 2008 (GMT)

NWNNE
WE
SWSSE
Home            
Caravelas Porto Seguro Vitoria Aeroporto Ilheus Aeroporto Vitoria Da Conquista Montes Claros Campos Salvador Aeroporto Belo Horizonte Aeroporto Belo Horizonte Macae Barbacena Juiz De Fora S. P. Aldeia Aerodrome Bom Jesus Da Lapa Galeao Rio De Janeiro Aeroporto Afonsos Aeroporto Rio / Jacarepagua Rio De Janeiro-Santa Cruz Ab Resende Aracaju Aeroporto Guaratingueta

To put a weather button on your web site or blog, copy the code below and paste it into your page . The first box contains HTML code, the second UBB code.


Add to Google

Details

Wind speed:3 bf, 10 kn, 5.1 m/s, 11.5 miles/h, 18.5 km/h
Wind direction:NNE, 020°
Visibility:Greater than 10000 m, 10 km, 32800 ft, 6.2 miles
Clouds:CAVOC
Temperature:25°C, 77°F
Feels like:26°C, 78°F
Dew-point:22°C, 72°F
Atmospheric pressure:1012 hPa, 759.1 mmHg, 29.88 inHg, 0.999 atm
Relative humidity:83.5 %
METAR:SBCV 272200Z 02010KT CAVOK 25/22 Q1012

Shortcuts

An up-to-date overview of weather conditions all over the world. Add locations with the plus (+) sign. These shortcuts can be added to Google.

Lid van de Technetium groep

website free tracking
StatCounter NetStat W3C Validator

17-05-2022 07:50:55
astro.technetium.be money.technetium.be phote.technetium.be tafeltennistafel.technetium.be www.ligfiets.net